This is the latest recevied weather packets stored in our database for station/object DB0RSR-12. If no packets are shown the sender has not sent any weather packets the latest 10 day(s).
| Time | Temp. | Humidity | Pressure | Rain* | Wind** | Luminosity | Snow |
|---|---|---|---|---|---|---|---|
| 1777627552 | 26.67° C | 26% | 1014 hPa | - | - | - | - |
| 1777626652 | 25° C | 27% | 1015 hPa | - | - | - | - |
| 1777625752 | 23.89° C | 31% | 1015 hPa | - | - | - | - |
| 1777624852 | 23.33° C | 31% | 1015 hPa | - | - | - | - |
| 1777623952 | 22.22° C | 35% | 1015 hPa | - | - | - | - |
| 1777623052 | 21.11° C | 37% | 1015 hPa | - | - | - | - |
| 1777622152 | 19.44° C | 40% | 1015 hPa | - | - | - | - |
| 1777621252 | 17.78° C | 44% | 1015 hPa | - | - | - | - |
| 1777620351 | 16.67° C | 48% | 1015 hPa | - | - | - | - |
| 1777619451 | 14.44° C | 53% | 1015 hPa | - | - | - | - |
| 1777618551 | 13.33° C | 58% | 1015 hPa | - | - | - | - |
| 1777617651 | 12.22° C | 63% | 1015 hPa | - | - | - | - |
| 1777616751 | 10.56° C | 68% | 1015 hPa | - | - | - | - |
| 1777615851 | 9.44° C | 67% | 1015 hPa | - | - | - | - |
| 1777614951 | 8.89° C | 61% | 1015 hPa | - | - | - | - |
| 1777614051 | 8.33° C | 58% | 1015 hPa | - | - | - | - |
| 1777613151 | 7.78° C | 60% | 1015 hPa | - | - | - | - |
| 1777612251 | 7.78° C | 60% | 1015 hPa | - | - | - | - |
| 1777611351 | 7.22° C | 58% | 1015 hPa | - | - | - | - |
| 1777610451 | 7.22° C | 56% | 1014 hPa | - | - | - | - |
| 1777609551 | 7.22° C | 56% | 1015 hPa | - | - | - | - |
| 1777608651 | 7.22° C | 54% | 1014 hPa | - | - | - | - |
| 1777607751 | 7.22° C | 54% | 1014 hPa | - | - | - | - |
| 1777606851 | 7.78° C | 54% | 1014 hPa | - | - | - | - |
| 1777605951 | 7.78° C | 55% | 1014 hPa | - | - | - | - |
* Rain since midnight (hover to see other rain measurements)
** Current wind speed in m/s (hover to see current wind gust speed)